sensor_id;sensor_type;location;lat;lon;timestamp;P1;durP1;ratioP1;P2;durP2;ratioP2
69529;SDS011;56727;47.188;8.840;2023-07-20T00:01:51;5.70;;;2.20;;
69529;SDS011;56727;47.188;8.840;2023-07-20T00:04:17;6.60;;;2.20;;
69529;SDS011;56727;47.188;8.840;2023-07-20T00:06:44;6.90;;;2.30;;
69529;SDS011;56727;47.188;8.840;2023-07-20T00:09:11;6.10;;;2.10;;
69529;SDS011;56727;47.188;8.840;2023-07-20T00:11:39;5.80;;;1.70;;
69529;SDS011;56727;47.188;8.840;2023-07-20T00:14:06;5.70;;;2.00;;
69529;SDS011;56727;47.188;8.840;2023-07-20T00:16:33;7.00;;;2.20;;
69529;SDS011;56727;47.188;8.840;2023-07-20T00:19:00;6.40;;;2.20;;
69529;SDS011;56727;47.188;8.840;2023-07-20T00:21:27;4.90;;;1.70;;
69529;SDS011;56727;47.188;8.840;2023-07-20T00:23:53;5.90;;;2.00;;
69529;SDS011;56727;47.188;8.840;2023-07-20T00:26:20;7.70;;;2.30;;
69529;SDS011;56727;47.188;8.840;2023-07-20T00:28:49;5.30;;;2.10;;
69529;SDS011;56727;47.188;8.840;2023-07-20T00:31:17;6.30;;;1.60;;
69529;SDS011;56727;47.188;8.840;2023-07-20T00:33:43;7.00;;;2.00;;
69529;SDS011;56727;47.188;8.840;2023-07-20T00:36:10;4.60;;;1.70;;
69529;SDS011;56727;47.188;8.840;2023-07-20T00:38:36;5.40;;;1.90;;
69529;SDS011;56727;47.188;8.840;2023-07-20T00:41:03;6.50;;;1.90;;
69529;SDS011;56727;47.188;8.840;2023-07-20T00:43:30;4.70;;;1.80;;
69529;SDS011;56727;47.188;8.840;2023-07-20T00:45:56;6.60;;;2.20;;
69529;SDS011;56727;47.188;8.840;2023-07-20T00:48:23;5.50;;;2.20;;
69529;SDS011;56727;47.188;8.840;2023-07-20T00:50:50;6.40;;;1.80;;
69529;SDS011;56727;47.188;8.840;2023-07-20T00:53:17;7.70;;;1.50;;
69529;SDS011;56727;47.188;8.840;2023-07-20T00:55:43;5.10;;;1.50;;
69529;SDS011;56727;47.188;8.840;2023-07-20T00:58:10;5.80;;;1.90;;
69529;SDS011;56727;47.188;8.840;2023-07-20T01:00:37;6.90;;;1.70;;
69529;SDS011;56727;47.188;8.840;2023-07-20T01:03:03;5.20;;;1.60;;
69529;SDS011;56727;47.188;8.840;2023-07-20T01:05:38;6.20;;;1.90;;
69529;SDS011;56727;47.188;8.840;2023-07-20T01:08:48;8.80;;;2.00;;
69529;SDS011;56727;47.188;8.840;2023-07-20T01:11:38;5.10;;;1.80;;
69529;SDS011;56727;47.188;8.840;2023-07-20T01:14:10;6.40;;;2.00;;
69529;SDS011;56727;47.188;8.840;2023-07-20T01:16:38;6.40;;;2.10;;
69529;SDS011;56727;47.188;8.840;2023-07-20T01:19:05;6.50;;;2.00;;
69529;SDS011;56727;47.188;8.840;2023-07-20T01:21:37;6.50;;;1.60;;
69529;SDS011;56727;47.188;8.840;2023-07-20T01:24:52;7.50;;;2.10;;
69529;SDS011;56727;47.188;8.840;2023-07-20T01:27:36;5.60;;;1.80;;
69529;SDS011;56727;47.188;8.840;2023-07-20T01:30:27;4.90;;;1.70;;
69529;SDS011;56727;47.188;8.840;2023-07-20T01:33:13;7.30;;;1.90;;
69529;SDS011;56727;47.188;8.840;2023-07-20T01:35:44;5.90;;;1.60;;
69529;SDS011;56727;47.188;8.840;2023-07-20T01:38:14;5.10;;;1.60;;
69529;SDS011;56727;47.188;8.840;2023-07-20T01:40:41;5.60;;;1.50;;
69529;SDS011;56727;47.188;8.840;2023-07-20T01:43:08;5.30;;;1.50;;
69529;SDS011;56727;47.188;8.840;2023-07-20T01:45:35;6.10;;;1.60;;
69529;SDS011;56727;47.188;8.840;2023-07-20T01:48:01;6.50;;;1.80;;
69529;SDS011;56727;47.188;8.840;2023-07-20T01:50:28;7.10;;;1.50;;
69529;SDS011;56727;47.188;8.840;2023-07-20T01:52:54;4.20;;;1.40;;
69529;SDS011;56727;47.188;8.840;2023-07-20T01:55:21;5.70;;;1.40;;
69529;SDS011;56727;47.188;8.840;2023-07-20T01:57:48;5.10;;;1.60;;
69529;SDS011;56727;47.188;8.840;2023-07-20T02:00:18;5.20;;;1.60;;
69529;SDS011;56727;47.188;8.840;2023-07-20T02:02:52;4.10;;;1.20;;
69529;SDS011;56727;47.188;8.840;2023-07-20T02:05:19;6.10;;;1.60;;
69529;SDS011;56727;47.188;8.840;2023-07-20T02:07:45;5.80;;;1.50;;
69529;SDS011;56727;47.188;8.840;2023-07-20T02:10:12;5.50;;;1.50;;
69529;SDS011;56727;47.188;8.840;2023-07-20T02:12:39;4.80;;;1.60;;
69529;SDS011;56727;47.188;8.840;2023-07-20T02:15:06;6.30;;;1.80;;
69529;SDS011;56727;47.188;8.840;2023-07-20T02:17:33;8.60;;;1.80;;
69529;SDS011;56727;47.188;8.840;2023-07-20T02:19:59;4.20;;;1.40;;
69529;SDS011;56727;47.188;8.840;2023-07-20T02:22:26;6.00;;;1.90;;
69529;SDS011;56727;47.188;8.840;2023-07-20T02:24:52;5.70;;;1.30;;
69529;SDS011;56727;47.188;8.840;2023-07-20T02:27:19;5.80;;;1.50;;
69529;SDS011;56727;47.188;8.840;2023-07-20T02:29:46;5.00;;;1.50;;
69529;SDS011;56727;47.188;8.840;2023-07-20T02:32:12;5.20;;;1.50;;
69529;SDS011;56727;47.188;8.840;2023-07-20T02:34:39;6.40;;;1.40;;
69529;SDS011;56727;47.188;8.840;2023-07-20T02:37:06;5.70;;;1.50;;
69529;SDS011;56727;47.188;8.840;2023-07-20T02:39:32;5.60;;;1.70;;
69529;SDS011;56727;47.188;8.840;2023-07-20T02:41:59;4.90;;;1.70;;
69529;SDS011;56727;47.188;8.840;2023-07-20T02:44:26;4.30;;;1.50;;
69529;SDS011;56727;47.188;8.840;2023-07-20T02:46:52;6.40;;;1.90;;
69529;SDS011;56727;47.188;8.840;2023-07-20T02:49:19;7.40;;;1.60;;
69529;SDS011;56727;47.188;8.840;2023-07-20T02:51:46;4.50;;;1.40;;
69529;SDS011;56727;47.188;8.840;2023-07-20T02:54:14;5.40;;;1.90;;
69529;SDS011;56727;47.188;8.840;2023-07-20T02:56:41;8.40;;;2.00;;
69529;SDS011;56727;47.188;8.840;2023-07-20T02:59:08;5.20;;;1.80;;
69529;SDS011;56727;47.188;8.840;2023-07-20T03:01:34;4.40;;;1.70;;
69529;SDS011;56727;47.188;8.840;2023-07-20T03:04:01;5.60;;;1.40;;
69529;SDS011;56727;47.188;8.840;2023-07-20T03:06:28;5.50;;;1.80;;
69529;SDS011;56727;47.188;8.840;2023-07-20T03:08:55;6.20;;;1.70;;
69529;SDS011;56727;47.188;8.840;2023-07-20T03:11:21;5.70;;;1.90;;
69529;SDS011;56727;47.188;8.840;2023-07-20T03:13:48;5.30;;;1.30;;
69529;SDS011;56727;47.188;8.840;2023-07-20T03:16:17;5.50;;;1.60;;
69529;SDS011;56727;47.188;8.840;2023-07-20T03:18:45;4.30;;;1.50;;
69529;SDS011;56727;47.188;8.840;2023-07-20T03:21:12;6.20;;;1.80;;
69529;SDS011;56727;47.188;8.840;2023-07-20T03:23:40;5.40;;;1.40;;
69529;SDS011;56727;47.188;8.840;2023-07-20T03:26:07;6.20;;;1.80;;
69529;SDS011;56727;47.188;8.840;2023-07-20T03:28:37;4.20;;;1.70;;
69529;SDS011;56727;47.188;8.840;2023-07-20T03:31:05;5.00;;;1.60;;
69529;SDS011;56727;47.188;8.840;2023-07-20T03:33:34;4.60;;;1.70;;
69529;SDS011;56727;47.188;8.840;2023-07-20T03:36:01;8.80;;;1.40;;
69529;SDS011;56727;47.188;8.840;2023-07-20T03:38:27;4.70;;;1.50;;
69529;SDS011;56727;47.188;8.840;2023-07-20T03:40:56;5.30;;;1.30;;
69529;SDS011;56727;47.188;8.840;2023-07-20T03:43:25;6.90;;;2.10;;
69529;SDS011;56727;47.188;8.840;2023-07-20T03:45:53;5.40;;;1.60;;
69529;SDS011;56727;47.188;8.840;2023-07-20T03:48:22;4.90;;;1.50;;
69529;SDS011;56727;47.188;8.840;2023-07-20T03:50:53;4.80;;;1.50;;
69529;SDS011;56727;47.188;8.840;2023-07-20T03:53:20;4.10;;;1.20;;
69529;SDS011;56727;47.188;8.840;2023-07-20T03:55:48;4.30;;;1.50;;
69529;SDS011;56727;47.188;8.840;2023-07-20T03:58:18;5.10;;;1.50;;
69529;SDS011;56727;47.188;8.840;2023-07-20T04:00:46;5.80;;;1.50;;
69529;SDS011;56727;47.188;8.840;2023-07-20T04:03:14;4.20;;;1.40;;
69529;SDS011;56727;47.188;8.840;2023-07-20T04:05:41;5.20;;;1.20;;
69529;SDS011;56727;47.188;8.840;2023-07-20T04:08:09;4.90;;;1.50;;
69529;SDS011;56727;47.188;8.840;2023-07-20T04:10:38;3.90;;;1.20;;
69529;SDS011;56727;47.188;8.840;2023-07-20T04:13:05;4.50;;;1.30;;
69529;SDS011;56727;47.188;8.840;2023-07-20T04:15:32;5.30;;;1.50;;
69529;SDS011;56727;47.188;8.840;2023-07-20T04:17:58;4.90;;;1.00;;
69529;SDS011;56727;47.188;8.840;2023-07-20T04:20:25;6.40;;;1.40;;
69529;SDS011;56727;47.188;8.840;2023-07-20T04:22:52;5.10;;;1.30;;
69529;SDS011;56727;47.188;8.840;2023-07-20T04:25:18;5.40;;;1.40;;
69529;SDS011;56727;47.188;8.840;2023-07-20T04:27:45;6.30;;;1.50;;
69529;SDS011;56727;47.188;8.840;2023-07-20T04:30:12;6.90;;;1.40;;
69529;SDS011;56727;47.188;8.840;2023-07-20T04:32:39;5.30;;;1.10;;
69529;SDS011;56727;47.188;8.840;2023-07-20T04:35:25;5.40;;;1.30;;
69529;SDS011;56727;47.188;8.840;2023-07-20T04:38:20;6.80;;;1.10;;
69529;SDS011;56727;47.188;8.840;2023-07-20T04:40:49;4.40;;;1.10;;
69529;SDS011;56727;47.188;8.840;2023-07-20T04:43:17;4.70;;;1.20;;
69529;SDS011;56727;47.188;8.840;2023-07-20T04:45:44;5.70;;;1.50;;
69529;SDS011;56727;47.188;8.840;2023-07-20T04:48:14;4.00;;;1.20;;
69529;SDS011;56727;47.188;8.840;2023-07-20T04:50:44;3.50;;;1.10;;
69529;SDS011;56727;47.188;8.840;2023-07-20T04:53:12;5.60;;;1.10;;
69529;SDS011;56727;47.188;8.840;2023-07-20T04:55:39;6.00;;;1.30;;
69529;SDS011;56727;47.188;8.840;2023-07-20T04:58:06;5.80;;;1.20;;
69529;SDS011;56727;47.188;8.840;2023-07-20T05:00:34;4.50;;;0.90;;
69529;SDS011;56727;47.188;8.840;2023-07-20T05:03:01;3.50;;;1.10;;
69529;SDS011;56727;47.188;8.840;2023-07-20T05:05:28;4.20;;;1.20;;
69529;SDS011;56727;47.188;8.840;2023-07-20T05:07:54;3.90;;;1.10;;
69529;SDS011;56727;47.188;8.840;2023-07-20T05:10:21;6.30;;;1.40;;
69529;SDS011;56727;47.188;8.840;2023-07-20T05:12:47;8.00;;;1.70;;
69529;SDS011;56727;47.188;8.840;2023-07-20T05:15:14;7.00;;;1.10;;
69529;SDS011;56727;47.188;8.840;2023-07-20T05:17:41;4.30;;;1.10;;
69529;SDS011;56727;47.188;8.840;2023-07-20T05:20:09;5.00;;;1.60;;
69529;SDS011;56727;47.188;8.840;2023-07-20T05:22:36;4.30;;;0.80;;
69529;SDS011;56727;47.188;8.840;2023-07-20T05:25:07;4.30;;;1.20;;
69529;SDS011;56727;47.188;8.840;2023-07-20T05:27:36;6.60;;;0.90;;
69529;SDS011;56727;47.188;8.840;2023-07-20T05:30:04;6.20;;;0.90;;
69529;SDS011;56727;47.188;8.840;2023-07-20T05:32:33;4.80;;;0.90;;
69529;SDS011;56727;47.188;8.840;2023-07-20T05:35:00;5.90;;;1.50;;
69529;SDS011;56727;47.188;8.840;2023-07-20T05:37:26;5.60;;;1.60;;
69529;SDS011;56727;47.188;8.840;2023-07-20T05:39:53;42.00;;;8.40;;
69529;SDS011;56727;47.188;8.840;2023-07-20T05:42:20;8.90;;;2.10;;
69529;SDS011;56727;47.188;8.840;2023-07-20T05:44:46;4.30;;;1.30;;
69529;SDS011;56727;47.188;8.840;2023-07-20T05:47:14;5.70;;;1.20;;
69529;SDS011;56727;47.188;8.840;2023-07-20T05:49:41;6.60;;;1.60;;
69529;SDS011;56727;47.188;8.840;2023-07-20T05:52:07;5.70;;;1.00;;
69529;SDS011;56727;47.188;8.840;2023-07-20T05:54:34;5.50;;;1.30;;
69529;SDS011;56727;47.188;8.840;2023-07-20T05:57:01;5.70;;;1.30;;
69529;SDS011;56727;47.188;8.840;2023-07-20T05:59:27;6.80;;;1.20;;
69529;SDS011;56727;47.188;8.840;2023-07-20T06:01:57;6.30;;;1.70;;
69529;SDS011;56727;47.188;8.840;2023-07-20T06:04:24;5.20;;;1.60;;
69529;SDS011;56727;47.188;8.840;2023-07-20T06:06:51;5.50;;;1.10;;
69529;SDS011;56727;47.188;8.840;2023-07-20T06:09:17;10.50;;;3.30;;
69529;SDS011;56727;47.188;8.840;2023-07-20T06:11:44;13.10;;;4.60;;
69529;SDS011;56727;47.188;8.840;2023-07-20T06:14:11;19.20;;;7.00;;
69529;SDS011;56727;47.188;8.840;2023-07-20T06:16:38;12.00;;;4.60;;
69529;SDS011;56727;47.188;8.840;2023-07-20T06:19:05;9.40;;;3.70;;
69529;SDS011;56727;47.188;8.840;2023-07-20T06:21:32;7.50;;;2.40;;
69529;SDS011;56727;47.188;8.840;2023-07-20T06:23:58;8.90;;;2.40;;
69529;SDS011;56727;47.188;8.840;2023-07-20T06:26:25;7.00;;;1.90;;
69529;SDS011;56727;47.188;8.840;2023-07-20T06:28:51;5.10;;;1.70;;
69529;SDS011;56727;47.188;8.840;2023-07-20T06:31:18;4.90;;;1.60;;
69529;SDS011;56727;47.188;8.840;2023-07-20T06:33:44;5.30;;;1.60;;
69529;SDS011;56727;47.188;8.840;2023-07-20T06:36:11;6.70;;;2.30;;
69529;SDS011;56727;47.188;8.840;2023-07-20T06:38:38;7.40;;;2.00;;
69529;SDS011;56727;47.188;8.840;2023-07-20T06:41:05;5.10;;;1.90;;
69529;SDS011;56727;47.188;8.840;2023-07-20T06:43:31;6.50;;;2.30;;
69529;SDS011;56727;47.188;8.840;2023-07-20T06:45:58;7.00;;;1.90;;
69529;SDS011;56727;47.188;8.840;2023-07-20T06:48:24;7.00;;;2.80;;
69529;SDS011;56727;47.188;8.840;2023-07-20T06:50:51;5.90;;;2.50;;
69529;SDS011;56727;47.188;8.840;2023-07-20T06:53:17;6.80;;;2.80;;
69529;SDS011;56727;47.188;8.840;2023-07-20T06:55:44;5.30;;;2.90;;
69529;SDS011;56727;47.188;8.840;2023-07-20T06:58:11;8.10;;;3.80;;
69529;SDS011;56727;47.188;8.840;2023-07-20T07:00:38;8.90;;;3.40;;
69529;SDS011;56727;47.188;8.840;2023-07-20T07:03:04;6.50;;;3.50;;
69529;SDS011;56727;47.188;8.840;2023-07-20T07:05:31;7.90;;;4.10;;
69529;SDS011;56727;47.188;8.840;2023-07-20T07:07:57;7.20;;;4.50;;
69529;SDS011;56727;47.188;8.840;2023-07-20T07:10:24;6.70;;;3.60;;
69529;SDS011;56727;47.188;8.840;2023-07-20T07:12:51;6.30;;;4.30;;
69529;SDS011;56727;47.188;8.840;2023-07-20T07:15:17;8.10;;;4.00;;
69529;SDS011;56727;47.188;8.840;2023-07-20T07:17:44;6.70;;;4.20;;
69529;SDS011;56727;47.188;8.840;2023-07-20T07:20:11;9.40;;;4.50;;
69529;SDS011;56727;47.188;8.840;2023-07-20T07:22:38;6.20;;;4.90;;
69529;SDS011;56727;47.188;8.840;2023-07-20T07:25:05;6.30;;;4.90;;
69529;SDS011;56727;47.188;8.840;2023-07-20T07:27:33;7.80;;;4.90;;
69529;SDS011;56727;47.188;8.840;2023-07-20T07:30:00;7.90;;;5.80;;
69529;SDS011;56727;47.188;8.840;2023-07-20T07:32:27;7.10;;;5.70;;
69529;SDS011;56727;47.188;8.840;2023-07-20T07:34:54;6.20;;;5.40;;
69529;SDS011;56727;47.188;8.840;2023-07-20T07:37:21;7.50;;;6.80;;
69529;SDS011;56727;47.188;8.840;2023-07-20T07:39:48;8.10;;;6.20;;
69529;SDS011;56727;47.188;8.840;2023-07-20T07:42:14;7.70;;;6.20;;
69529;SDS011;56727;47.188;8.840;2023-07-20T07:44:40;7.60;;;6.90;;
69529;SDS011;56727;47.188;8.840;2023-07-20T07:47:07;11.90;;;6.70;;
69529;SDS011;56727;47.188;8.840;2023-07-20T07:49:34;7.80;;;6.30;;
69529;SDS011;56727;47.188;8.840;2023-07-20T07:52:00;8.80;;;7.20;;
69529;SDS011;56727;47.188;8.840;2023-07-20T07:54:28;8.80;;;7.20;;
69529;SDS011;56727;47.188;8.840;2023-07-20T07:56:56;9.70;;;7.90;;
69529;SDS011;56727;47.188;8.840;2023-07-20T07:59:22;9.40;;;7.70;;
69529;SDS011;56727;47.188;8.840;2023-07-20T08:01:49;11.30;;;9.10;;
69529;SDS011;56727;47.188;8.840;2023-07-20T08:04:15;8.80;;;7.90;;
69529;SDS011;56727;47.188;8.840;2023-07-20T08:06:42;9.00;;;8.20;;
69529;SDS011;56727;47.188;8.840;2023-07-20T08:09:09;10.50;;;8.90;;
69529;SDS011;56727;47.188;8.840;2023-07-20T08:11:35;10.00;;;7.90;;
69529;SDS011;56727;47.188;8.840;2023-07-20T08:14:02;8.20;;;7.40;;
69529;SDS011;56727;47.188;8.840;2023-07-20T08:16:29;10.20;;;7.60;;
69529;SDS011;56727;47.188;8.840;2023-07-20T08:18:55;7.90;;;7.00;;
69529;SDS011;56727;47.188;8.840;2023-07-20T08:21:22;8.60;;;7.10;;
69529;SDS011;56727;47.188;8.840;2023-07-20T08:23:48;8.90;;;7.40;;
69529;SDS011;56727;47.188;8.840;2023-07-20T08:26:15;9.40;;;6.70;;
69529;SDS011;56727;47.188;8.840;2023-07-20T08:28:43;6.90;;;6.00;;
69529;SDS011;56727;47.188;8.840;2023-07-20T08:31:11;9.80;;;5.20;;
69529;SDS011;56727;47.188;8.840;2023-07-20T08:33:38;5.90;;;4.60;;
69529;SDS011;56727;47.188;8.840;2023-07-20T08:36:04;7.10;;;4.60;;
69529;SDS011;56727;47.188;8.840;2023-07-20T08:38:32;5.40;;;3.80;;
69529;SDS011;56727;47.188;8.840;2023-07-20T08:40:58;7.00;;;3.60;;
69529;SDS011;56727;47.188;8.840;2023-07-20T08:43:27;7.40;;;3.40;;
69529;SDS011;56727;47.188;8.840;2023-07-20T08:48:43;5.90;;;3.30;;
69529;SDS011;56727;47.188;8.840;2023-07-20T08:51:11;10.00;;;3.10;;
69529;SDS011;56727;47.188;8.840;2023-07-20T08:53:39;8.10;;;3.00;;
69529;SDS011;56727;47.188;8.840;2023-07-20T08:56:06;5.80;;;2.60;;
69529;SDS011;56727;47.188;8.840;2023-07-20T08:58:38;7.40;;;2.40;;
69529;SDS011;56727;47.188;8.840;2023-07-20T09:01:08;6.60;;;2.40;;
69529;SDS011;56727;47.188;8.840;2023-07-20T09:03:34;7.30;;;2.50;;
69529;SDS011;56727;47.188;8.840;2023-07-20T09:06:01;4.90;;;2.20;;
69529;SDS011;56727;47.188;8.840;2023-07-20T09:08:27;7.20;;;2.90;;
69529;SDS011;56727;47.188;8.840;2023-07-20T09:10:54;4.50;;;2.30;;
69529;SDS011;56727;47.188;8.840;2023-07-20T09:13:20;5.40;;;2.30;;
69529;SDS011;56727;47.188;8.840;2023-07-20T09:15:48;4.40;;;2.00;;
69529;SDS011;56727;47.188;8.840;2023-07-20T09:18:24;5.90;;;1.90;;
69529;SDS011;56727;47.188;8.840;2023-07-20T09:20:51;5.20;;;2.00;;
69529;SDS011;56727;47.188;8.840;2023-07-20T09:23:18;6.50;;;2.10;;
69529;SDS011;56727;47.188;8.840;2023-07-20T09:25:47;4.20;;;1.70;;
69529;SDS011;56727;47.188;8.840;2023-07-20T09:28:17;7.00;;;2.00;;
69529;SDS011;56727;47.188;8.840;2023-07-20T09:30:44;4.90;;;1.90;;
69529;SDS011;56727;47.188;8.840;2023-07-20T09:33:18;6.50;;;1.90;;
69529;SDS011;56727;47.188;8.840;2023-07-20T09:35:47;5.10;;;1.80;;
69529;SDS011;56727;47.188;8.840;2023-07-20T09:38:14;6.10;;;2.30;;
69529;SDS011;56727;47.188;8.840;2023-07-20T09:40:41;6.30;;;1.90;;
69529;SDS011;56727;47.188;8.840;2023-07-20T09:43:09;6.60;;;1.90;;
69529;SDS011;56727;47.188;8.840;2023-07-20T09:45:40;6.90;;;1.80;;
69529;SDS011;56727;47.188;8.840;2023-07-20T09:48:10;5.40;;;1.80;;
69529;SDS011;56727;47.188;8.840;2023-07-20T09:50:48;4.70;;;1.90;;
69529;SDS011;56727;47.188;8.840;2023-07-20T09:53:18;6.60;;;2.30;;
69529;SDS011;56727;47.188;8.840;2023-07-20T09:55:46;6.90;;;2.20;;
69529;SDS011;56727;47.188;8.840;2023-07-20T09:58:14;7.30;;;2.20;;
69529;SDS011;56727;47.188;8.840;2023-07-20T10:00:42;5.00;;;1.60;;
69529;SDS011;56727;47.188;8.840;2023-07-20T10:03:18;4.30;;;1.70;;
69529;SDS011;56727;47.188;8.840;2023-07-20T10:05:59;3.80;;;1.60;;
69529;SDS011;56727;47.188;8.840;2023-07-20T10:08:33;4.90;;;2.10;;
69529;SDS011;56727;47.188;8.840;2023-07-20T10:11:05;5.10;;;1.90;;
69529;SDS011;56727;47.188;8.840;2023-07-20T10:13:38;4.90;;;1.60;;
69529;SDS011;56727;47.188;8.840;2023-07-20T10:16:11;5.30;;;2.00;;
69529;SDS011;56727;47.188;8.840;2023-07-20T10:18:47;6.30;;;2.10;;
69529;SDS011;56727;47.188;8.840;2023-07-20T10:21:19;5.10;;;2.00;;
69529;SDS011;56727;47.188;8.840;2023-07-20T10:23:49;4.40;;;2.10;;
69529;SDS011;56727;47.188;8.840;2023-07-20T10:26:16;5.80;;;1.90;;
69529;SDS011;56727;47.188;8.840;2023-07-20T10:28:42;5.80;;;1.90;;
69529;SDS011;56727;47.188;8.840;2023-07-20T10:31:10;5.10;;;2.00;;
69529;SDS011;56727;47.188;8.840;2023-07-20T10:33:39;6.60;;;1.80;;
69529;SDS011;56727;47.188;8.840;2023-07-20T10:36:06;5.40;;;1.80;;
69529;SDS011;56727;47.188;8.840;2023-07-20T10:38:40;4.70;;;2.10;;
69529;SDS011;56727;47.188;8.840;2023-07-20T10:41:35;6.40;;;1.90;;
69529;SDS011;56727;47.188;8.840;2023-07-20T10:44:07;4.70;;;1.90;;
69529;SDS011;56727;47.188;8.840;2023-07-20T10:46:42;5.10;;;1.80;;
69529;SDS011;56727;47.188;8.840;2023-07-20T10:49:11;5.40;;;2.00;;
69529;SDS011;56727;47.188;8.840;2023-07-20T10:51:48;5.90;;;2.00;;
69529;SDS011;56727;47.188;8.840;2023-07-20T10:54:46;5.60;;;2.20;;
69529;SDS011;56727;47.188;8.840;2023-07-20T10:57:31;5.70;;;1.90;;
69529;SDS011;56727;47.188;8.840;2023-07-20T11:00:08;5.50;;;1.90;;
69529;SDS011;56727;47.188;8.840;2023-07-20T11:02:45;5.80;;;2.10;;
69529;SDS011;56727;47.188;8.840;2023-07-20T11:05:36;6.30;;;2.20;;
69529;SDS011;56727;47.188;8.840;2023-07-20T11:08:12;6.10;;;2.30;;
69529;SDS011;56727;47.188;8.840;2023-07-20T11:10:39;5.20;;;2.20;;
69529;SDS011;56727;47.188;8.840;2023-07-20T11:13:20;4.90;;;2.00;;
69529;SDS011;56727;47.188;8.840;2023-07-20T11:16:14;6.90;;;2.10;;
69529;SDS011;56727;47.188;8.840;2023-07-20T11:18:43;7.00;;;2.10;;
69529;SDS011;56727;47.188;8.840;2023-07-20T11:21:10;6.40;;;2.30;;
69529;SDS011;56727;47.188;8.840;2023-07-20T11:23:38;5.20;;;1.80;;
69529;SDS011;56727;47.188;8.840;2023-07-20T11:26:05;5.30;;;1.90;;
69529;SDS011;56727;47.188;8.840;2023-07-20T11:28:33;4.80;;;1.90;;
69529;SDS011;56727;47.188;8.840;2023-07-20T11:31:00;6.00;;;2.00;;
69529;SDS011;56727;47.188;8.840;2023-07-20T11:33:27;5.20;;;2.30;;
69529;SDS011;56727;47.188;8.840;2023-07-20T11:35:53;9.00;;;2.30;;
69529;SDS011;56727;47.188;8.840;2023-07-20T11:38:20;4.70;;;2.20;;
69529;SDS011;56727;47.188;8.840;2023-07-20T11:40:46;5.60;;;1.90;;
69529;SDS011;56727;47.188;8.840;2023-07-20T11:43:14;5.00;;;2.20;;
69529;SDS011;56727;47.188;8.840;2023-07-20T11:45:41;5.40;;;1.90;;
69529;SDS011;56727;47.188;8.840;2023-07-20T11:48:14;5.60;;;2.10;;
69529;SDS011;56727;47.188;8.840;2023-07-20T11:50:42;5.50;;;2.10;;
69529;SDS011;56727;47.188;8.840;2023-07-20T11:53:09;5.00;;;1.90;;
69529;SDS011;56727;47.188;8.840;2023-07-20T11:55:36;6.80;;;2.20;;
69529;SDS011;56727;47.188;8.840;2023-07-20T11:58:05;4.80;;;1.70;;
69529;SDS011;56727;47.188;8.840;2023-07-20T12:00:33;6.60;;;2.10;;
69529;SDS011;56727;47.188;8.840;2023-07-20T12:03:01;5.50;;;2.00;;
69529;SDS011;56727;47.188;8.840;2023-07-20T12:05:28;4.50;;;1.80;;
69529;SDS011;56727;47.188;8.840;2023-07-20T12:07:54;6.10;;;1.80;;
69529;SDS011;56727;47.188;8.840;2023-07-20T12:10:28;5.80;;;2.20;;
69529;SDS011;56727;47.188;8.840;2023-07-20T12:13:01;7.10;;;1.90;;
69529;SDS011;56727;47.188;8.840;2023-07-20T12:15:29;5.90;;;2.60;;
69529;SDS011;56727;47.188;8.840;2023-07-20T12:17:59;5.50;;;1.90;;
69529;SDS011;56727;47.188;8.840;2023-07-20T12:20:33;5.00;;;2.20;;
69529;SDS011;56727;47.188;8.840;2023-07-20T12:23:08;5.20;;;2.10;;
69529;SDS011;56727;47.188;8.840;2023-07-20T12:25:41;5.60;;;2.30;;
69529;SDS011;56727;47.188;8.840;2023-07-20T12:28:16;5.90;;;2.00;;
69529;SDS011;56727;47.188;8.840;2023-07-20T12:30:47;6.20;;;2.40;;
69529;SDS011;56727;47.188;8.840;2023-07-20T12:33:22;7.20;;;2.30;;
69529;SDS011;56727;47.188;8.840;2023-07-20T12:35:49;5.50;;;2.30;;
69529;SDS011;56727;47.188;8.840;2023-07-20T12:38:16;5.90;;;2.50;;
69529;SDS011;56727;47.188;8.840;2023-07-20T12:40:43;6.10;;;2.10;;
69529;SDS011;56727;47.188;8.840;2023-07-20T12:43:09;7.50;;;2.10;;
69529;SDS011;56727;47.188;8.840;2023-07-20T12:45:36;4.40;;;2.00;;
69529;SDS011;56727;47.188;8.840;2023-07-20T12:48:03;4.80;;;1.90;;
69529;SDS011;56727;47.188;8.840;2023-07-20T12:50:30;8.30;;;1.80;;
69529;SDS011;56727;47.188;8.840;2023-07-20T12:52:56;6.80;;;2.70;;
69529;SDS011;56727;47.188;8.840;2023-07-20T12:55:23;6.10;;;2.30;;
69529;SDS011;56727;47.188;8.840;2023-07-20T12:57:49;5.50;;;2.10;;
69529;SDS011;56727;47.188;8.840;2023-07-20T13:00:17;4.60;;;2.10;;
69529;SDS011;56727;47.188;8.840;2023-07-20T13:02:43;5.50;;;2.00;;
69529;SDS011;56727;47.188;8.840;2023-07-20T13:05:10;5.80;;;2.10;;
69529;SDS011;56727;47.188;8.840;2023-07-20T13:07:38;5.50;;;2.30;;
69529;SDS011;56727;47.188;8.840;2023-07-20T13:10:06;4.60;;;1.70;;
69529;SDS011;56727;47.188;8.840;2023-07-20T13:12:34;6.00;;;2.30;;
69529;SDS011;56727;47.188;8.840;2023-07-20T13:15:06;6.10;;;2.20;;
69529;SDS011;56727;47.188;8.840;2023-07-20T13:17:35;6.00;;;2.20;;
69529;SDS011;56727;47.188;8.840;2023-07-20T13:20:04;5.40;;;1.90;;
69529;SDS011;56727;47.188;8.840;2023-07-20T13:22:34;8.30;;;2.00;;
69529;SDS011;56727;47.188;8.840;2023-07-20T13:25:01;6.50;;;1.90;;
69529;SDS011;56727;47.188;8.840;2023-07-20T13:27:28;5.90;;;2.10;;
69529;SDS011;56727;47.188;8.840;2023-07-20T13:29:58;7.70;;;1.90;;
69529;SDS011;56727;47.188;8.840;2023-07-20T13:32:27;4.10;;;1.40;;
69529;SDS011;56727;47.188;8.840;2023-07-20T13:34:53;5.90;;;2.50;;
69529;SDS011;56727;47.188;8.840;2023-07-20T13:37:20;5.90;;;2.00;;
69529;SDS011;56727;47.188;8.840;2023-07-20T13:39:48;5.70;;;2.10;;
69529;SDS011;56727;47.188;8.840;2023-07-20T13:42:14;5.20;;;1.80;;
69529;SDS011;56727;47.188;8.840;2023-07-20T13:44:41;6.10;;;1.90;;
69529;SDS011;56727;47.188;8.840;2023-07-20T13:47:07;4.80;;;1.70;;
69529;SDS011;56727;47.188;8.840;2023-07-20T13:49:34;5.50;;;2.20;;
69529;SDS011;56727;47.188;8.840;2023-07-20T13:52:01;5.60;;;1.90;;
69529;SDS011;56727;47.188;8.840;2023-07-20T13:54:27;5.90;;;2.40;;
69529;SDS011;56727;47.188;8.840;2023-07-20T13:56:54;4.50;;;1.80;;
69529;SDS011;56727;47.188;8.840;2023-07-20T13:59:20;4.80;;;2.10;;
69529;SDS011;56727;47.188;8.840;2023-07-20T14:01:47;6.00;;;2.40;;
69529;SDS011;56727;47.188;8.840;2023-07-20T14:04:13;5.70;;;2.10;;
69529;SDS011;56727;47.188;8.840;2023-07-20T14:06:40;5.00;;;1.90;;
69529;SDS011;56727;47.188;8.840;2023-07-20T14:09:07;5.40;;;2.10;;
69529;SDS011;56727;47.188;8.840;2023-07-20T14:11:33;5.10;;;2.00;;
69529;SDS011;56727;47.188;8.840;2023-07-20T14:14:00;6.20;;;1.90;;
69529;SDS011;56727;47.188;8.840;2023-07-20T14:16:27;4.90;;;1.80;;
69529;SDS011;56727;47.188;8.840;2023-07-20T14:18:53;6.10;;;2.20;;
69529;SDS011;56727;47.188;8.840;2023-07-20T14:21:20;7.70;;;2.00;;
69529;SDS011;56727;47.188;8.840;2023-07-20T14:23:49;5.50;;;1.80;;
69529;SDS011;56727;47.188;8.840;2023-07-20T14:26:17;4.20;;;1.60;;
69529;SDS011;56727;47.188;8.840;2023-07-20T14:28:44;5.40;;;1.90;;
69529;SDS011;56727;47.188;8.840;2023-07-20T14:31:10;6.60;;;2.20;;
69529;SDS011;56727;47.188;8.840;2023-07-20T14:33:37;14.20;;;3.70;;
69529;SDS011;56727;47.188;8.840;2023-07-20T14:36:03;12.00;;;2.20;;
69529;SDS011;56727;47.188;8.840;2023-07-20T14:38:31;7.50;;;2.50;;
69529;SDS011;56727;47.188;8.840;2023-07-20T14:40:59;6.80;;;2.10;;
69529;SDS011;56727;47.188;8.840;2023-07-20T14:43:26;5.60;;;2.60;;
69529;SDS011;56727;47.188;8.840;2023-07-20T14:45:52;5.40;;;2.30;;
69529;SDS011;56727;47.188;8.840;2023-07-20T14:48:20;4.70;;;2.10;;
69529;SDS011;56727;47.188;8.840;2023-07-20T14:50:47;5.30;;;2.10;;
69529;SDS011;56727;47.188;8.840;2023-07-20T14:53:14;5.00;;;2.10;;
69529;SDS011;56727;47.188;8.840;2023-07-20T14:55:41;9.70;;;3.30;;
69529;SDS011;56727;47.188;8.840;2023-07-20T14:58:09;8.20;;;3.00;;
69529;SDS011;56727;47.188;8.840;2023-07-20T15:00:36;6.70;;;2.40;;